createdAt,value
2023-02-26T00:02:10.808Z,-1.08
2023-02-26T00:08:54.395Z,-1.10
2023-02-26T00:15:37.465Z,-1.09
2023-02-26T00:22:20.682Z,-1.09
2023-02-26T00:29:04.721Z,-1.06
2023-02-26T00:35:47.145Z,-1.05
2023-02-26T00:42:30.944Z,-1.04
2023-02-26T00:49:52.531Z,-1.01
2023-02-26T00:56:35.039Z,-1.00
2023-02-26T01:03:17.787Z,-1.02
2023-02-26T01:10:00.730Z,-1.00
2023-02-26T01:17:23.236Z,-0.98
2023-02-26T01:24:12.053Z,-1.02
2023-02-26T01:31:01.588Z,-1.05
2023-02-26T01:37:58.111Z,-1.08
2023-02-26T01:44:55.792Z,-1.14
2023-02-26T01:51:54.912Z,-1.16
2023-02-26T01:58:37.975Z,-1.19
2023-02-26T02:05:33.002Z,-1.23
2023-02-26T02:12:27.274Z,-1.21
2023-02-26T02:19:57.392Z,-1.23
2023-02-26T02:26:56.734Z,-1.25
2023-02-26T02:34:01.768Z,-1.24
2023-02-26T02:40:52.484Z,-1.18
2023-02-26T02:47:40.697Z,-1.21
2023-02-26T02:55:00.840Z,-1.21
2023-02-26T03:01:48.320Z,-1.19
2023-02-26T03:08:44.375Z,-1.22
2023-02-26T03:15:47.455Z,-1.24
2023-02-26T03:23:14.638Z,-1.26
2023-02-26T03:30:07.846Z,-1.26
2023-02-26T03:37:01.509Z,-1.26
2023-02-26T03:43:54.248Z,-1.22
2023-02-26T03:50:51.071Z,-1.21
2023-02-26T03:57:41.296Z,-1.19
2023-02-26T04:05:19.908Z,-1.16
2023-02-26T04:12:03.981Z,-1.17
2023-02-26T04:18:46.618Z,-1.17
2023-02-26T04:25:29.743Z,-1.15
2023-02-26T04:32:12.505Z,-1.16
2023-02-26T04:38:55.107Z,-1.22
2023-02-26T04:45:37.712Z,-1.28
2023-02-26T04:52:20.259Z,-1.30
2023-02-26T04:59:03.788Z,-1.28
2023-02-26T05:05:47.233Z,-1.27
2023-02-26T05:12:30.225Z,-1.29
2023-02-26T05:19:12.698Z,-1.27
2023-02-26T05:25:57.382Z,-1.25
2023-02-26T05:32:39.954Z,-1.23
2023-02-26T05:39:22.288Z,-1.20
2023-02-26T05:46:05.382Z,-1.16
2023-02-26T05:52:47.826Z,-1.12
2023-02-26T05:59:30.323Z,-1.09
2023-02-26T06:06:18.091Z,-1.05
2023-02-26T06:13:00.374Z,-1.00
2023-02-26T06:19:43.051Z,-0.96
2023-02-26T06:26:25.632Z,-0.90
2023-02-26T06:33:08.077Z,-0.82
2023-02-26T06:39:50.437Z,-0.76
2023-02-26T06:46:33.178Z,-0.71
2023-02-26T06:53:15.874Z,-0.65
2023-02-26T06:59:58.531Z,-0.60
2023-02-26T07:06:41.202Z,-0.55
2023-02-26T07:13:23.775Z,-0.48
2023-02-26T07:20:10.183Z,-0.43
2023-02-26T07:26:53.231Z,-0.37
2023-02-26T07:33:35.714Z,-0.34
2023-02-26T07:40:18.972Z,-0.28
2023-02-26T07:47:01.710Z,-0.21
2023-02-26T07:53:44.129Z,-0.16
2023-02-26T08:00:26.702Z,-0.12
2023-02-26T08:07:10.611Z,-0.08
2023-02-26T08:13:53.748Z,-0.03
2023-02-26T08:20:36.245Z,0.02
2023-02-26T08:27:19.275Z,0.07
2023-02-26T08:34:02.125Z,0.13
2023-02-26T08:40:44.778Z,0.22
2023-02-26T08:47:29.031Z,0.39
2023-02-26T08:54:12.179Z,0.53
2023-02-26T09:00:54.720Z,0.56
2023-02-26T09:07:37.095Z,0.54
2023-02-26T09:14:19.613Z,0.53
2023-02-26T09:21:02.941Z,0.57
2023-02-26T09:27:47.946Z,0.61
2023-02-26T09:34:33.185Z,0.64
2023-02-26T09:41:28.715Z,0.72
2023-02-26T09:48:17.712Z,0.76
2023-02-26T09:55:39.180Z,0.82
2023-02-26T10:02:39.082Z,0.89
2023-02-26T10:09:39.323Z,0.98
2023-02-26T10:16:27.145Z,1.07
2023-02-26T10:23:22.336Z,1.16
2023-02-26T10:30:21.965Z,1.24
2023-02-26T10:37:20.795Z,1.29
2023-02-26T10:44:40.251Z,1.26
2023-02-26T10:51:29.029Z,1.24
2023-02-26T10:58:23.858Z,1.25
2023-02-26T11:05:18.496Z,1.22
2023-02-26T11:12:17.037Z,1.10
2023-02-26T11:19:01.508Z,1.00
2023-02-26T11:25:45.075Z,0.98
2023-02-26T11:32:37.106Z,1.05
2023-02-26T11:39:24.277Z,1.06
2023-02-26T11:46:06.718Z,0.98
2023-02-26T11:53:24.054Z,0.86
2023-02-26T12:00:35.882Z,0.71
2023-02-26T12:07:19.497Z,0.60
2023-02-26T12:14:36.887Z,0.54
2023-02-26T12:21:49.160Z,0.55
2023-02-26T12:29:15.104Z,0.61
2023-02-26T12:36:19.003Z,0.71
2023-02-26T12:43:17.311Z,0.75
2023-02-26T12:50:10.099Z,0.81
2023-02-26T12:57:38.263Z,0.80
2023-02-26T13:04:35.934Z,0.81
2023-02-26T13:12:10.441Z,0.79
2023-02-26T13:19:28.087Z,0.79
2023-02-26T13:26:13.910Z,0.73
2023-02-26T13:32:59.173Z,0.69
2023-02-26T13:39:51.369Z,0.62
2023-02-26T13:47:00.277Z,0.59
2023-02-26T13:53:51.266Z,0.57
2023-02-26T14:00:35.653Z,0.59
2023-02-26T14:07:38.120Z,0.57
2023-02-26T14:14:25.565Z,0.57
2023-02-26T14:21:26.959Z,0.56
2023-02-26T14:28:27.876Z,0.56
2023-02-26T14:35:20.830Z,0.52
2023-02-26T14:42:20.999Z,0.51
2023-02-26T14:49:05.215Z,0.49
2023-02-26T14:56:27.534Z,0.49
2023-02-26T15:04:16.311Z,0.47
2023-02-26T15:11:38.558Z,0.43
2023-02-26T15:19:10.625Z,0.39
2023-02-26T15:25:53.162Z,0.31
2023-02-26T15:32:38.532Z,0.17
2023-02-26T15:39:24.522Z,-0.04
2023-02-26T15:46:09.434Z,-0.25
2023-02-26T15:53:01.775Z,-0.45
2023-02-26T15:59:49.052Z,-0.57
2023-02-26T16:06:38.138Z,-0.63
2023-02-26T16:13:37.799Z,-0.70
2023-02-26T16:20:27.133Z,-0.72
2023-02-26T16:27:13.708Z,-0.73
2023-02-26T16:34:05.106Z,-0.72
2023-02-26T16:41:00.932Z,-0.70
2023-02-26T16:47:46.301Z,-0.71
2023-02-26T16:54:41.086Z,-0.71
2023-02-26T17:01:24.285Z,-0.70
2023-02-26T17:08:33.801Z,-0.71
2023-02-26T17:15:32.177Z,-0.84
2023-02-26T17:22:26.564Z,-1.01
2023-02-26T17:29:23.193Z,-1.10
2023-02-26T17:36:06.235Z,-1.15
2023-02-26T17:42:49.453Z,-1.19
2023-02-26T17:49:31.821Z,-1.20
2023-02-26T17:56:32.995Z,-1.25
2023-02-26T18:03:16.460Z,-1.31
2023-02-26T18:09:58.963Z,-1.33
2023-02-26T18:16:45.422Z,-1.30
2023-02-26T18:23:27.899Z,-1.28
2023-02-26T18:30:23.173Z,-1.27
2023-02-26T18:37:05.847Z,-1.27
2023-02-26T18:43:51.332Z,-1.23
2023-02-26T18:50:33.980Z,-1.20
2023-02-26T18:57:17.158Z,-1.17
2023-02-26T19:03:59.684Z,-1.13
2023-02-26T19:10:42.051Z,-1.09
2023-02-26T19:17:24.425Z,-1.05
2023-02-26T19:24:12.212Z,-1.00
2023-02-26T19:30:55.391Z,-0.93
2023-02-26T19:37:37.838Z,-0.87
2023-02-26T19:44:22.853Z,-0.87
2023-02-26T19:51:06.224Z,-0.84
2023-02-26T19:57:49.375Z,-0.85
2023-02-26T20:04:31.997Z,-0.89
2023-02-26T20:11:15.127Z,-0.92
2023-02-26T20:17:57.557Z,-1.03
2023-02-26T20:24:39.931Z,-1.12
2023-02-26T20:31:22.891Z,-1.18
2023-02-26T20:38:06.358Z,-1.22
2023-02-26T20:45:05.787Z,-1.21
2023-02-26T20:51:50.565Z,-1.18
2023-02-26T20:58:33.610Z,-1.17
2023-02-26T21:05:18.514Z,-1.20
2023-02-26T21:12:01.843Z,-1.25
2023-02-26T21:18:46.683Z,-1.31
2023-02-26T21:25:34.258Z,-1.33
2023-02-26T21:32:20.239Z,-1.33
2023-02-26T21:39:05.668Z,-1.34
2023-02-26T21:46:02.378Z,-1.31
2023-02-26T21:52:45.192Z,-1.28
2023-02-26T21:59:30.118Z,-1.27
2023-02-26T22:06:18.680Z,-1.24
2023-02-26T22:13:14.790Z,-1.24
2023-02-26T22:19:59.343Z,-1.27
2023-02-26T22:26:56.546Z,-1.26
2023-02-26T22:33:48.931Z,-1.28
2023-02-26T22:40:32.461Z,-1.26
2023-02-26T22:47:17.065Z,-1.27
2023-02-26T22:54:05.579Z,-1.33
2023-02-26T23:00:53.988Z,-1.35
2023-02-26T23:07:38.438Z,-1.33
2023-02-26T23:14:22.837Z,-1.30
2023-02-26T23:21:08.030Z,-1.27
2023-02-26T23:27:53.644Z,-1.22
2023-02-26T23:34:36.029Z,-1.21
2023-02-26T23:41:18.547Z,-1.24
2023-02-26T23:48:01.199Z,-1.24
2023-02-26T23:54:43.730Z,-1.24
